Time;durP1;ratioP1;P1;durP2;ratioP2;P2;SDS_P1;SDS_P2;PMS_P1;PMS_P2;Temp;Humidity;BMP_temperature;BMP_pressure;BME280_temperature;BME280_humidity;BME280_pressure;Samples;Min_cycle;Max_cycle;Signal;HPM_P1;HPM_P2
2022/10/31 00:02:21;;;;;;;11.95;4.82;;;;;;;;;;5140738;27;20053;-67
2022/10/31 00:04:47;;;;;;;9.20;5.82;;;;;;;;;;5129813;27;20055;-68
2022/10/31 00:07:14;;;;;;;8.07;5.38;;;;;;;;;;5139586;27;20055;-67
2022/10/31 00:09:40;;;;;;;13.07;5.97;;;;;;;;;;5135526;27;20055;-67
2022/10/31 00:12:06;;;;;;;9.95;5.63;;;;;;;;;;5124094;27;20077;-67
2022/10/31 00:14:32;;;;;;;10.60;5.55;;;;;;;;;;5122176;27;20051;-67
2022/10/31 00:16:59;;;;;;;9.20;5.57;;;;;;;;;;5122159;27;20047;-67
2022/10/31 00:19:25;;;;;;;7.20;5.30;;;;;;;;;;5134796;27;20054;-66
2022/10/31 00:21:52;;;;;;;9.18;5.20;;;;;;;;;;5141660;27;20054;-66
2022/10/31 00:24:18;;;;;;;8.20;5.93;;;;;;;;;;5132065;27;20052;-66
2022/10/31 00:26:44;;;;;;;8.98;4.85;;;;;;;;;;5144363;27;20054;-66
2022/10/31 00:29:12;;;;;;;11.73;6.00;;;;;;;;;;5133551;27;20520;-67
2022/10/31 00:31:38;;;;;;;9.15;5.30;;;;;;;;;;5137527;27;20536;-68
2022/10/31 00:34:05;;;;;;;8.73;4.72;;;;;;;;;;5132077;27;20054;-69
2022/10/31 00:36:31;;;;;;;6.75;4.43;;;;;;;;;;5139281;27;20093;-68
2022/10/31 00:38:58;;;;;;;9.15;5.05;;;;;;;;;;5129693;27;20047;-67
2022/10/31 00:41:24;;;;;;;8.80;5.40;;;;;;;;;;5127506;27;20165;-67
2022/10/31 00:43:51;;;;;;;8.20;4.97;;;;;;;;;;5138761;27;20047;-66
2022/10/31 00:46:17;;;;;;;9.63;4.65;;;;;;;;;;5128661;27;20047;-66
2022/10/31 00:48:43;;;;;;;6.95;4.80;;;;;;;;;;5131841;27;20054;-67
2022/10/31 00:51:10;;;;;;;13.18;4.70;;;;;;;;;;5124106;27;20346;-67
2022/10/31 00:53:36;;;;;;;6.82;4.68;;;;;;;;;;5134028;27;20055;-66
2022/10/31 00:56:03;;;;;;;9.13;4.82;;;;;;;;;;5122099;27;20059;-66
2022/10/31 00:58:29;;;;;;;7.55;4.93;;;;;;;;;;5128332;27;20063;-67
2022/10/31 01:00:56;;;;;;;6.93;4.45;;;;;;;;;;5135440;27;20517;-67
2022/10/31 01:03:27;;;;;;;8.48;4.97;;;;;;;;;;5128880;27;20562;-67
2022/10/31 01:05:56;;;;;;;5.72;4.35;;;;;;;;;;5127885;27;20502;-67
2022/10/31 01:08:23;;;;;;;6.28;4.43;;;;;;;;;;5144030;27;20047;-67
2022/10/31 01:11:05;;;;;;;10.43;5.00;;;;;;;;;;5147123;27;20055;-67
2022/10/31 01:13:32;;;;;;;8.43;5.00;;;;;;;;;;5144776;27;20047;-68
2022/10/31 01:15:59;;;;;;;8.98;4.50;;;;;;;;;;5146847;27;20577;-68
2022/10/31 01:18:26;;;;;;;8.45;4.97;;;;;;;;;;5137422;27;20639;-67
2022/10/31 01:20:59;;;;;;;12.82;4.72;;;;;;;;;;5127436;27;20421;-68
2022/10/31 01:23:25;;;;;;;6.97;4.57;;;;;;;;;;5136394;27;20062;-67
2022/10/31 01:25:58;;;;;;;7.32;4.68;;;;;;;;;;5126903;27;20611;-67
2022/10/31 01:28:25;;;;;;;10.82;5.25;;;;;;;;;;5133408;27;20043;-67
2022/10/31 01:31:01;;;;;;;6.78;4.57;;;;;;;;;;5128969;27;20058;-67
2022/10/31 01:33:27;;;;;;;7.53;4.30;;;;;;;;;;5138439;27;20051;-67
2022/10/31 01:35:54;;;;;;;6.68;4.55;;;;;;;;;;5126098;27;20059;-67
2022/10/31 01:38:20;;;;;;;10.23;5.00;;;;;;;;;;5139171;27;20054;-66
2022/10/31 01:40:47;;;;;;;8.40;4.88;;;;;;;;;;5134456;27;20052;-67
2022/10/31 01:43:13;;;;;;;8.10;4.65;;;;;;;;;;5124910;27;20048;-66
2022/10/31 01:45:45;;;;;;;10.90;5.50;;;;;;;;;;5124808;27;20047;-67
2022/10/31 01:48:15;;;;;;;8.77;5.50;;;;;;;;;;5130868;27;20051;-66
2022/10/31 01:50:43;;;;;;;14.48;5.38;;;;;;;;;;5144732;27;20641;-69
2022/10/31 01:53:10;;;;;;;9.23;7.45;;;;;;;;;;5131247;27;20051;-68
2022/10/31 01:55:39;;;;;;;10.18;5.93;;;;;;;;;;5140080;27;20495;-68
2022/10/31 01:58:08;;;;;;;9.75;5.78;;;;;;;;;;5143770;27;20112;-67
2022/10/31 02:00:34;;;;;;;12.13;6.28;;;;;;;;;;5124604;27;20051;-66
2022/10/31 02:03:01;;;;;;;10.95;6.70;;;;;;;;;;5137374;27;20062;-67
2022/10/31 02:05:29;;;;;;;9.88;6.40;;;;;;;;;;5136755;27;20043;-67
2022/10/31 02:08:01;;;;;;;18.27;7.32;;;;;;;;;;5133499;27;20055;-66
2022/10/31 02:10:28;;;;;;;11.52;7.40;;;;;;;;;;5123061;27;20055;-66
2022/10/31 02:12:56;;;;;;;12.60;6.75;;;;;;;;;;5125653;27;20061;-66
2022/10/31 02:15:24;;;;;;;11.57;6.97;;;;;;;;;;5122386;27;20604;-68
2022/10/31 02:17:51;;;;;;;11.70;6.72;;;;;;;;;;5125348;27;20724;-68
2022/10/31 02:20:19;;;;;;;9.38;6.80;;;;;;;;;;5129464;27;20067;-66
2022/10/31 02:23:04;;;;;;;12.80;6.75;;;;;;;;;;5134175;27;20111;-66
2022/10/31 02:25:49;;;;;;;12.55;6.85;;;;;;;;;;5142857;27;20104;-67
2022/10/31 02:28:35;;;;;;;12.13;7.25;;;;;;;;;;5137228;27;20044;-66
2022/10/31 02:31:15;;;;;;;7.05;5.63;;;;;;;;;;5098847;27;20055;-66
2022/10/31 02:33:57;;;;;;;16.33;6.97;;;;;;;;;;5141571;27;20050;-68
2022/10/31 02:36:27;;;;;;;10.00;6.88;;;;;;;;;;5131264;27;20527;-65
2022/10/31 02:38:57;;;;;;;10.93;7.78;;;;;;;;;;5139597;27;20060;-67
2022/10/31 02:41:42;;;;;;;12.57;7.70;;;;;;;;;;5132463;27;20051;-67
2022/10/31 02:44:27;;;;;;;10.87;7.60;;;;;;;;;;5125558;27;20596;-67
2022/10/31 02:46:57;;;;;;;12.07;8.33;;;;;;;;;;5131803;27;20048;-67
2022/10/31 02:49:23;;;;;;;9.13;7.28;;;;;;;;;;5137942;27;20058;-66
2022/10/31 02:51:50;;;;;;;12.35;8.23;;;;;;;;;;5145973;27;20047;-66
2022/10/31 02:54:21;;;;;;;13.18;9.85;;;;;;;;;;5133855;27;20113;-66
2022/10/31 02:56:48;;;;;;;13.18;8.38;;;;;;;;;;5124225;27;20063;-67
2022/10/31 02:59:15;;;;;;;12.75;7.68;;;;;;;;;;5123506;27;20098;-67
2022/10/31 03:01:48;;;;;;;10.77;7.90;;;;;;;;;;5124396;27;20944;-67
2022/10/31 03:04:17;;;;;;;10.68;7.25;;;;;;;;;;5129036;27;20094;-67
2022/10/31 03:06:43;;;;;;;14.70;9.43;;;;;;;;;;5124187;27;20483;-66
2022/10/31 03:09:10;;;;;;;14.55;9.80;;;;;;;;;;5135582;27;20571;-67
2022/10/31 03:11:41;;;;;;;15.80;8.75;;;;;;;;;;5126036;27;20051;-66
2022/10/31 03:14:23;;;;;;;14.68;8.85;;;;;;;;;;5130492;27;20047;-67
2022/10/31 03:16:51;;;;;;;11.93;9.02;;;;;;;;;;5130581;27;20051;-68
2022/10/31 03:19:22;;;;;;;14.07;8.73;;;;;;;;;;5143110;27;20051;-67
2022/10/31 03:21:57;;;;;;;10.15;7.90;;;;;;;;;;5153522;27;20082;-66
2022/10/31 03:24:27;;;;;;;13.68;9.10;;;;;;;;;;5147242;27;20054;-66
2022/10/31 03:26:54;;;;;;;16.77;8.65;;;;;;;;;;5142796;27;20059;-66
2022/10/31 03:29:23;;;;;;;10.73;8.30;;;;;;;;;;5134757;27;20052;-66
2022/10/31 03:31:53;;;;;;;13.43;8.57;;;;;;;;;;5141861;27;20047;-68
2022/10/31 03:34:20;;;;;;;17.27;8.93;;;;;;;;;;5131400;27;20549;-70
2022/10/31 03:36:49;;;;;;;14.85;9.52;;;;;;;;;;5123879;27;20522;-66
2022/10/31 03:39:17;;;;;;;16.10;9.85;;;;;;;;;;5137780;27;20304;-68
2022/10/31 03:41:46;;;;;;;16.88;8.98;;;;;;;;;;5140181;27;20047;-67
2022/10/31 03:44:15;;;;;;;13.40;8.70;;;;;;;;;;5142019;27;20555;-66
2022/10/31 03:46:41;;;;;;;12.65;7.97;;;;;;;;;;5142514;27;20043;-66
2022/10/31 03:49:08;;;;;;;14.77;9.20;;;;;;;;;;5123010;27;20577;-67
2022/10/31 03:51:39;;;;;;;15.02;9.55;;;;;;;;;;5123237;27;20509;-67
2022/10/31 03:54:13;;;;;;;13.45;9.07;;;;;;;;;;5123448;27;20090;-67
2022/10/31 03:56:41;;;;;;;12.23;9.48;;;;;;;;;;5121018;27;20048;-67
2022/10/31 03:59:12;;;;;;;14.95;8.82;;;;;;;;;;5125820;27;20055;-67
2022/10/31 04:01:40;;;;;;;12.40;9.25;;;;;;;;;;5134163;27;20054;-67
2022/10/31 04:04:06;;;;;;;12.43;9.68;;;;;;;;;;5134055;27;20055;-66
2022/10/31 04:06:34;;;;;;;12.52;9.50;;;;;;;;;;5128119;27;20410;-66
2022/10/31 04:09:03;;;;;;;19.65;9.10;;;;;;;;;;5134440;27;20058;-68
2022/10/31 04:11:31;;;;;;;12.77;9.77;;;;;;;;;;5128697;27;20320;-68
2022/10/31 04:13:59;;;;;;;10.63;9.02;;;;;;;;;;5123608;27;20087;-67
2022/10/31 04:16:26;;;;;;;13.25;9.25;;;;;;;;;;5141194;27;20058;-66
2022/10/31 04:18:52;;;;;;;14.02;9.52;;;;;;;;;;5137983;27;20054;-66
2022/10/31 04:21:19;;;;;;;17.35;10.18;;;;;;;;;;5123505;27;20048;-67
2022/10/31 04:23:45;;;;;;;14.80;9.65;;;;;;;;;;5130297;27;20051;-66
2022/10/31 04:26:11;;;;;;;14.77;10.02;;;;;;;;;;5132796;27;20513;-66
2022/10/31 04:28:38;;;;;;;16.00;9.45;;;;;;;;;;5132156;27;20039;-67
2022/10/31 04:31:05;;;;;;;14.27;9.45;;;;;;;;;;5126600;27;20056;-66
2022/10/31 04:33:31;;;;;;;13.65;9.02;;;;;;;;;;5125741;27;20063;-67
2022/10/31 04:35:57;;;;;;;18.90;10.25;;;;;;;;;;5122803;27;20589;-66
2022/10/31 04:38:23;;;;;;;13.32;8.93;;;;;;;;;;5123485;27;20526;-66
2022/10/31 04:40:50;;;;;;;14.27;9.32;;;;;;;;;;5125400;27;20075;-68
2022/10/31 04:43:16;;;;;;;15.25;9.07;;;;;;;;;;5126499;27;20055;-67
2022/10/31 04:45:42;;;;;;;16.02;10.93;;;;;;;;;;5142216;27;20051;-67
2022/10/31 04:48:09;;;;;;;18.67;9.27;;;;;;;;;;5140678;27;20733;-66
2022/10/31 04:50:35;;;;;;;12.27;9.52;;;;;;;;;;5126864;27;20055;-66
2022/10/31 04:53:01;;;;;;;13.27;8.73;;;;;;;;;;5125759;27;20055;-66
2022/10/31 04:55:27;;;;;;;13.23;9.98;;;;;;;;;;5127026;27;20789;-66
2022/10/31 04:57:54;;;;;;;13.13;8.65;;;;;;;;;;5144081;27;20059;-69
2022/10/31 05:00:21;;;;;;;15.15;8.80;;;;;;;;;;5144776;27;20054;-66
2022/10/31 05:02:51;;;;;;;15.98;9.43;;;;;;;;;;5142433;27;20058;-68
2022/10/31 05:05:19;;;;;;;14.85;9.65;;;;;;;;;;5138226;27;20062;-67
2022/10/31 05:07:46;;;;;;;13.35;9.23;;;;;;;;;;5145428;27;20050;-67
2022/10/31 05:10:23;;;;;;;14.02;9.70;;;;;;;;;;5129426;27;20058;-66
2022/10/31 05:12:59;;;;;;;13.30;9.70;;;;;;;;;;5127465;27;20058;-66
2022/10/31 05:15:27;;;;;;;15.50;9.43;;;;;;;;;;5128261;27;20055;-68
2022/10/31 05:17:54;;;;;;;13.27;8.63;;;;;;;;;;5138804;27;20557;-68
2022/10/31 05:20:21;;;;;;;10.85;9.00;;;;;;;;;;5125417;27;20528;-67
2022/10/31 05:22:48;;;;;;;11.25;9.57;;;;;;;;;;5126601;27;20051;-68
2022/10/31 05:25:15;;;;;;;12.93;9.70;;;;;;;;;;5141391;27;20051;-67
2022/10/31 05:27:43;;;;;;;12.23;9.07;;;;;;;;;;5131637;27;20051;-66
2022/10/31 05:30:10;;;;;;;12.35;9.48;;;;;;;;;;5127715;27;20081;-67
2022/10/31 05:32:40;;;;;;;11.57;9.88;;;;;;;;;;5138663;27;20063;-67
2022/10/31 05:35:10;;;;;;;15.82;9.95;;;;;;;;;;5143807;27;20051;-67
2022/10/31 05:37:37;;;;;;;11.10;8.70;;;;;;;;;;5125654;27;20051;-66
2022/10/31 05:40:04;;;;;;;12.75;9.55;;;;;;;;;;5141857;27;20047;-66
2022/10/31 05:42:33;;;;;;;13.45;8.43;;;;;;;;;;5146683;27;20260;-68
2022/10/31 05:45:00;;;;;;;12.48;8.77;;;;;;;;;;5139006;27;20055;-66
2022/10/31 05:47:26;;;;;;;12.15;9.30;;;;;;;;;;5131125;27;20460;-66
2022/10/31 05:49:52;;;;;;;11.32;8.30;;;;;;;;;;5157175;27;20535;-66
2022/10/31 05:52:19;;;;;;;17.83;9.77;;;;;;;;;;5166508;27;20505;-67
2022/10/31 05:54:45;;;;;;;13.80;9.45;;;;;;;;;;5126755;27;20051;-65
2022/10/31 05:57:12;;;;;;;20.25;10.02;;;;;;;;;;5134524;27;20051;-67
2022/10/31 05:59:38;;;;;;;17.58;9.70;;;;;;;;;;5136380;27;20055;-66
2022/10/31 06:02:04;;;;;;;16.35;9.50;;;;;;;;;;5128561;27;20056;-66
2022/10/31 06:04:30;;;;;;;16.17;9.95;;;;;;;;;;5134292;27;20055;-67
2022/10/31 06:06:57;;;;;;;19.02;10.52;;;;;;;;;;5145341;27;20606;-68
2022/10/31 06:09:23;;;;;;;18.85;10.13;;;;;;;;;;5155528;27;20599;-65
2022/10/31 06:11:50;;;;;;;19.15;10.60;;;;;;;;;;5154619;27;20059;-67
2022/10/31 06:14:16;;;;;;;15.43;10.23;;;;;;;;;;5130574;27;20047;-66
2022/10/31 06:16:42;;;;;;;17.58;10.63;;;;;;;;;;5125048;27;20509;-67
2022/10/31 06:19:08;;;;;;;22.15;11.23;;;;;;;;;;5123192;27;20044;-66
2022/10/31 06:21:35;;;;;;;18.83;10.65;;;;;;;;;;5125404;27;20047;-66
2022/10/31 06:24:01;;;;;;;20.40;10.55;;;;;;;;;;5125685;27;20158;-66
2022/10/31 06:26:28;;;;;;;21.98;10.80;;;;;;;;;;5128068;27;20048;-66
2022/10/31 06:28:54;;;;;;;14.45;10.35;;;;;;;;;;5134203;27;20511;-66
2022/10/31 06:31:25;;;;;;;14.90;10.00;;;;;;;;;;5128668;27;20672;-65
2022/10/31 06:33:51;;;;;;;16.27;10.35;;;;;;;;;;5142578;27;20465;-67
2022/10/31 06:36:17;;;;;;;19.42;11.05;;;;;;;;;;5124197;27;20104;-66
2022/10/31 06:38:43;;;;;;;16.92;11.32;;;;;;;;;;5128777;27;20055;-66
2022/10/31 06:41:10;;;;;;;17.27;11.02;;;;;;;;;;5141493;27;20097;-65
2022/10/31 06:43:36;;;;;;;17.95;10.45;;;;;;;;;;5134919;27;20051;-67
2022/10/31 06:46:03;;;;;;;15.57;10.93;;;;;;;;;;5131893;27;20055;-66
2022/10/31 06:48:29;;;;;;;18.00;10.90;;;;;;;;;;5126467;27;20097;-66
2022/10/31 06:50:59;;;;;;;18.10;10.73;;;;;;;;;;5140754;27;20051;-66
2022/10/31 06:53:26;;;;;;;21.10;10.93;;;;;;;;;;5132507;27;20457;-65
2022/10/31 06:55:52;;;;;;;18.10;11.05;;;;;;;;;;5134650;27;20422;-66
2022/10/31 06:58:18;;;;;;;20.50;11.10;;;;;;;;;;5132422;27;20113;-65
2022/10/31 07:00:45;;;;;;;17.15;10.82;;;;;;;;;;5135619;27;20058;-66
2022/10/31 07:03:12;;;;;;;16.38;10.65;;;;;;;;;;5142012;27;20054;-66
2022/10/31 07:05:38;;;;;;;15.45;10.70;;;;;;;;;;5144084;27;20051;-66
2022/10/31 07:08:06;;;;;;;21.25;10.60;;;;;;;;;;5131944;27;20044;-67
2022/10/31 07:10:34;;;;;;;13.10;9.43;;;;;;;;;;5132908;27;21123;-66
2022/10/31 07:13:06;;;;;;;13.05;10.02;;;;;;;;;;5140425;27;20054;-66
2022/10/31 07:15:33;;;;;;;13.10;9.82;;;;;;;;;;5130925;27;20052;-65
2022/10/31 07:18:03;;;;;;;14.07;8.95;;;;;;;;;;5137522;27;20062;-66
2022/10/31 07:20:31;;;;;;;11.07;9.18;;;;;;;;;;5139639;27;20100;-65
2022/10/31 07:22:57;;;;;;;15.75;9.13;;;;;;;;;;5128713;27;20051;-66
2022/10/31 07:25:24;;;;;;;9.90;8.63;;;;;;;;;;5124442;27;20048;-66
2022/10/31 07:27:50;;;;;;;13.50;9.63;;;;;;;;;;5123278;27;20480;-66
2022/10/31 07:30:18;;;;;;;13.90;9.68;;;;;;;;;;5126474;27;20105;-66
2022/10/31 07:32:45;;;;;;;13.95;10.27;;;;;;;;;;5135791;27;20051;-65
2022/10/31 07:35:12;;;;;;;15.88;10.63;;;;;;;;;;5125409;27;20052;-65
2022/10/31 07:37:39;;;;;;;12.98;10.15;;;;;;;;;;5134345;27;20559;-67
2022/10/31 07:40:06;;;;;;;14.10;10.57;;;;;;;;;;5125670;27;20051;-68
2022/10/31 07:42:51;;;;;;;17.75;12.30;;;;;;;;;;5129995;27;20059;-67
2022/10/31 07:45:19;;;;;;;18.88;12.43;;;;;;;;;;5131080;27;20204;-66
2022/10/31 07:47:46;;;;;;;16.75;11.45;;;;;;;;;;5139841;27;20050;-67
2022/10/31 07:50:33;;;;;;;16.13;11.75;;;;;;;;;;5127234;27;20081;-66
2022/10/31 07:53:00;;;;;;;17.50;12.60;;;;;;;;;;5141280;27;20394;-66
2022/10/31 07:55:26;;;;;;;15.52;10.48;;;;;;;;;;5155127;27;20053;-66
2022/10/31 07:57:57;;;;;;;16.30;11.70;;;;;;;;;;5127943;27;20365;-65
2022/10/31 08:00:24;;;;;;;15.43;12.20;;;;;;;;;;5134471;27;20417;-66
2022/10/31 08:02:57;;;;;;;17.30;11.70;;;;;;;;;;5143033;27;20054;-65
2022/10/31 08:05:24;;;;;;;14.80;12.13;;;;;;;;;;5143077;27;20238;-66
2022/10/31 08:07:51;;;;;;;18.80;12.68;;;;;;;;;;5133943;27;20051;-66
2022/10/31 08:10:17;;;;;;;17.55;12.20;;;;;;;;;;5136886;27;20406;-65
2022/10/31 08:12:43;;;;;;;15.65;11.70;;;;;;;;;;5123446;27;20588;-66
2022/10/31 08:15:10;;;;;;;16.40;12.70;;;;;;;;;;5133400;27;20512;-66
2022/10/31 08:17:37;;;;;;;16.58;12.48;;;;;;;;;;5143818;27;20059;-65
2022/10/31 08:20:04;;;;;;;17.58;11.68;;;;;;;;;;5136505;27;20051;-66
2022/10/31 08:22:30;;;;;;;18.05;12.70;;;;;;;;;;5135544;27;20059;-66
2022/10/31 08:24:57;;;;;;;18.38;13.15;;;;;;;;;;5125014;27;20059;-65
2022/10/31 08:27:23;;;;;;;15.90;12.30;;;;;;;;;;5132845;27;20500;-66
2022/10/31 08:29:49;;;;;;;18.23;13.00;;;;;;;;;;5125956;27;20082;-66
2022/10/31 08:32:16;;;;;;;20.65;14.35;;;;;;;;;;5132837;27;20104;-66
2022/10/31 08:34:42;;;;;;;16.25;13.13;;;;;;;;;;5144069;27;20051;-66
2022/10/31 08:37:09;;;;;;;18.58;13.52;;;;;;;;;;5142867;27;20047;-65
2022/10/31 08:39:35;;;;;;;17.25;13.07;;;;;;;;;;5143562;27;20567;-65
2022/10/31 08:42:01;;;;;;;21.65;13.60;;;;;;;;;;5128405;27;20063;-65
2022/10/31 08:44:28;;;;;;;18.67;13.00;;;;;;;;;;5123108;27;20529;-65
2022/10/31 08:46:54;;;;;;;16.77;12.93;;;;;;;;;;5120486;27;20048;-65
2022/10/31 08:49:20;;;;;;;19.73;13.95;;;;;;;;;;5128024;27;20051;-67
2022/10/31 08:51:48;;;;;;;22.05;13.10;;;;;;;;;;5128787;27;20070;-67
2022/10/31 08:54:14;;;;;;;20.10;13.63;;;;;;;;;;5139281;27;20055;-67
2022/10/31 08:56:40;;;;;;;18.70;13.77;;;;;;;;;;5129295;27;20060;-67
2022/10/31 08:59:06;;;;;;;21.95;14.75;;;;;;;;;;5131874;27;20402;-67
2022/10/31 09:01:33;;;;;;;22.65;15.60;;;;;;;;;;5122472;27;20051;-65
2022/10/31 09:03:59;;;;;;;22.60;14.82;;;;;;;;;;5140560;27;20051;-66
2022/10/31 09:06:25;;;;;;;23.02;14.63;;;;;;;;;;5132192;27;20044;-66
2022/10/31 09:08:52;;;;;;;23.90;15.00;;;;;;;;;;5136650;27;20047;-66
2022/10/31 09:11:18;;;;;;;23.48;15.05;;;;;;;;;;5131148;27;20519;-66
2022/10/31 09:13:44;;;;;;;21.90;15.77;;;;;;;;;;5128337;27;20048;-66
2022/10/31 09:16:11;;;;;;;21.60;15.65;;;;;;;;;;5132535;27;20078;-66
2022/10/31 09:18:37;;;;;;;19.48;15.02;;;;;;;;;;5128783;27;20044;-65
2022/10/31 09:21:03;;;;;;;21.50;15.68;;;;;;;;;;5140052;27;20055;-67
2022/10/31 09:23:30;;;;;;;28.02;16.80;;;;;;;;;;5137836;27;20530;-65
2022/10/31 09:25:58;;;;;;;22.02;16.70;;;;;;;;;;5134101;27;20047;-65
2022/10/31 09:28:25;;;;;;;20.52;15.90;;;;;;;;;;5129722;27;20581;-65
2022/10/31 09:30:52;;;;;;;23.42;17.60;;;;;;;;;;5126943;27;20112;-66
2022/10/31 09:33:19;;;;;;;21.73;16.35;;;;;;;;;;5127088;27;20081;-65
2022/10/31 09:35:45;;;;;;;24.38;17.50;;;;;;;;;;5140922;27;20047;-65
2022/10/31 09:38:16;;;;;;;22.73;16.17;;;;;;;;;;5145220;27;20058;-65
2022/10/31 09:41:02;;;;;;;22.13;17.40;;;;;;;;;;5142824;27;20059;-67
2022/10/31 09:43:43;;;;;;;24.48;17.77;;;;;;;;;;5091902;27;20110;-65
2022/10/31 09:46:33;;;;;;;22.67;17.58;;;;;;;;;;5138141;27;20082;-66
2022/10/31 09:49:18;;;;;;;21.90;16.23;;;;;;;;;;5134863;27;20085;-66
2022/10/31 09:51:47;;;;;;;22.13;17.27;;;;;;;;;;5131956;27;20203;-65
2022/10/31 09:54:20;;;;;;;24.10;18.67;;;;;;;;;;5124946;27;20035;-65
2022/10/31 09:56:47;;;;;;;23.00;18.17;;;;;;;;;;5130745;27;20047;-65
2022/10/31 09:59:19;;;;;;;22.15;17.50;;;;;;;;;;5145210;27;20359;-65
2022/10/31 10:01:54;;;;;;;24.77;18.35;;;;;;;;;;5134377;27;20056;-65
2022/10/31 10:04:33;;;;;;;29.55;19.92;;;;;;;;;;5124734;27;20531;-66
2022/10/31 10:07:02;;;;;;;26.83;19.08;;;;;;;;;;5138836;27;20069;-65
2022/10/31 10:09:29;;;;;;;24.85;18.70;;;;;;;;;;5138351;27;20059;-65
2022/10/31 10:12:07;;;;;;;37.58;18.63;;;;;;;;;;5142559;27;20051;-67
2022/10/31 10:14:33;;;;;;;25.13;18.50;;;;;;;;;;5141567;27;20047;-66
2022/10/31 10:17:11;;;;;;;27.60;19.05;;;;;;;;;;5144000;27;20565;-66
2022/10/31 10:19:47;;;;;;;27.33;19.63;;;;;;;;;;5160751;27;20047;-66
2022/10/31 10:22:13;;;;;;;;;;;;;;;;;;5166054;27;20055;-65
2022/10/31 10:24:49;;;;;;;28.83;20.52;;;;;;;;;;5154231;27;46239;-65
2022/10/31 10:27:27;;;;;;;32.92;20.00;;;;;;;;;;5133780;27;20047;-65
2022/10/31 10:29:57;;;;;;;27.65;19.15;;;;;;;;;;5138108;27;20138;-66
2022/10/31 10:32:26;;;;;;;29.05;19.73;;;;;;;;;;5137764;27;20602;-65
2022/10/31 10:34:57;;;;;;;31.35;19.45;;;;;;;;;;5145460;27;20047;-65
2022/10/31 10:37:30;;;;;;;34.22;20.65;;;;;;;;;;5130896;27;20064;-65
2022/10/31 10:40:01;;;;;;;28.58;19.00;;;;;;;;;;5123234;27;20056;-65
2022/10/31 10:48:07;;;;;;;28.08;18.95;;;;;;;;;;5131062;27;20101;-65
2022/10/31 10:50:36;;;;;;;27.42;17.35;;;;;;;;;;5140540;27;20047;-68
2022/10/31 10:53:31;;;;;;;30.60;19.00;;;;;;;;;;5129657;27;20059;-69
2022/10/31 10:56:11;;;;;;;28.60;17.33;;;;;;;;;;5124445;27;20051;-66
2022/10/31 10:58:38;;;;;;;24.27;17.55;;;;;;;;;;5123976;27;20575;-66
2022/10/31 11:01:10;;;;;;;26.30;17.63;;;;;;;;;;5124980;27;20074;-67
2022/10/31 11:03:36;;;;;;;27.70;15.07;;;;;;;;;;5124836;27;20104;-70
2022/10/31 11:06:03;;;;;;;20.55;15.95;;;;;;;;;;5123935;27;20055;-67
2022/10/31 11:08:33;;;;;;;24.17;16.75;;;;;;;;;;5123700;27;20158;-65
2022/10/31 11:11:02;;;;;;;28.17;15.70;;;;;;;;;;5123908;27;20048;-64
2022/10/31 11:13:29;;;;;;;20.05;14.25;;;;;;;;;;5123978;27;20130;-67
2022/10/31 11:15:58;;;;;;;24.92;13.05;;;;;;;;;;5124338;27;20051;-72
2022/10/31 16:44:24;;;;;;;;;;;;;;;;;;5197009;27;20130;-70
2022/10/31 16:47:09;;;;;;;39.38;20.08;;;;;;;;;;5163268;27;45456;-69
2022/10/31 16:49:35;;;;;;;40.65;20.45;;;;;;;;;;5178121;27;20475;-69
2022/10/31 16:52:01;;;;;;;41.67;19.48;;;;;;;;;;5179229;27;20058;-69
2022/10/31 16:54:31;;;;;;;40.03;19.60;;;;;;;;;;5170339;27;20076;-69
2022/10/31 16:56:58;;;;;;;35.45;19.23;;;;;;;;;;5164733;27;20519;-70
2022/10/31 16:59:26;;;;;;;42.38;19.88;;;;;;;;;;5178681;27;20507;-70
2022/10/31 17:01:53;;;;;;;32.45;17.27;;;;;;;;;;5170062;27;20080;-69
2022/10/31 17:04:20;;;;;;;35.83;19.98;;;;;;;;;;5175358;27;20074;-70
2022/10/31 17:06:47;;;;;;;43.40;19.00;;;;;;;;;;5168706;27;20039;-69
2022/10/31 17:09:13;;;;;;;39.45;17.52;;;;;;;;;;5160884;27;20436;-68
2022/10/31 17:11:44;;;;;;;29.65;18.88;;;;;;;;;;5163564;27;20050;-68
2022/10/31 17:14:15;;;;;;;40.20;19.73;;;;;;;;;;5173612;27;20096;-68
2022/10/31 17:16:41;;;;;;;29.98;16.70;;;;;;;;;;5170229;27;20058;-67
2022/10/31 17:19:09;;;;;;;34.05;18.80;;;;;;;;;;5176814;27;20066;-68
2022/10/31 17:21:36;;;;;;;40.58;20.05;;;;;;;;;;5181373;27;20039;-68
2022/10/31 17:24:02;;;;;;;33.35;18.67;;;;;;;;;;5170019;27;20057;-69
2022/10/31 17:26:29;;;;;;;47.88;20.30;;;;;;;;;;5167799;27;20107;-69
2022/10/31 17:28:55;;;;;;;37.80;18.60;;;;;;;;;;5175061;27;20058;-69
2022/10/31 17:31:25;;;;;;;36.08;19.33;;;;;;;;;;5166491;27;20072;-68
2022/10/31 17:33:53;;;;;;;36.40;18.83;;;;;;;;;;5176429;27;20545;-68
2022/10/31 17:36:26;;;;;;;35.43;19.60;;;;;;;;;;5167946;27;20055;-68
2022/10/31 17:38:53;;;;;;;39.63;20.20;;;;;;;;;;5165721;27;20296;-69
2022/10/31 17:41:19;;;;;;;41.28;19.77;;;;;;;;;;5170944;27;20534;-68
2022/10/31 17:43:46;;;;;;;36.20;21.25;;;;;;;;;;5173250;27;20153;-68
2022/10/31 17:46:12;;;;;;;36.00;20.20;;;;;;;;;;5171946;27;20048;-68
2022/10/31 17:48:39;;;;;;;33.05;18.90;;;;;;;;;;5168274;27;20078;-68
2022/10/31 17:51:05;;;;;;;37.72;20.90;;;;;;;;;;5169883;27;20054;-70
2022/10/31 17:53:33;;;;;;;39.95;19.77;;;;;;;;;;5178211;27;20061;-69
2022/10/31 17:56:03;;;;;;;39.08;20.00;;;;;;;;;;5164544;27;20042;-69
2022/10/31 17:58:30;;;;;;;32.65;19.38;;;;;;;;;;5157304;27;20058;-69
2022/10/31 18:00:57;;;;;;;37.92;19.02;;;;;;;;;;5150710;27;20047;-69
2022/10/31 18:03:24;;;;;;;37.40;19.35;;;;;;;;;;5146663;27;20401;-68
2022/10/31 18:05:51;;;;;;;30.65;18.73;;;;;;;;;;5149444;27;20046;-70
2022/10/31 18:08:17;;;;;;;41.35;19.98;;;;;;;;;;5163405;27;20047;-69
2022/10/31 18:10:44;;;;;;;36.92;19.80;;;;;;;;;;5155230;27;20519;-69
2022/10/31 18:13:10;;;;;;;35.15;18.55;;;;;;;;;;5158647;27;20054;-68
2022/10/31 18:15:39;;;;;;;39.13;20.52;;;;;;;;;;5151749;27;20428;-68
2022/10/31 18:18:06;;;;;;;34.58;18.42;;;;;;;;;;5153584;27;20070;-68
2022/10/31 18:20:32;;;;;;;35.90;19.67;;;;;;;;;;5159575;27;20054;-70
2022/10/31 18:22:59;;;;;;;37.70;17.83;;;;;;;;;;5150796;27;20043;-69
2022/10/31 18:25:25;;;;;;;35.30;18.48;;;;;;;;;;5155067;27;20681;-68
2022/10/31 18:27:51;;;;;;;30.92;18.50;;;;;;;;;;5157407;27;20082;-69
2022/10/31 18:30:18;;;;;;;32.08;18.77;;;;;;;;;;5155840;27;20059;-69
2022/10/31 18:32:44;;;;;;;37.03;19.40;;;;;;;;;;5161246;27;20516;-68
2022/10/31 18:35:10;;;;;;;36.28;19.23;;;;;;;;;;5159584;27;20050;-69
2022/10/31 18:37:36;;;;;;;38.40;18.42;;;;;;;;;;5160019;27;20057;-68
2022/10/31 18:40:03;;;;;;;37.88;19.30;;;;;;;;;;5148528;27;20852;-68
2022/10/31 18:42:29;;;;;;;31.75;18.20;;;;;;;;;;5157757;27;20535;-68
2022/10/31 18:44:56;;;;;;;41.30;21.00;;;;;;;;;;5147275;27;20565;-69
2022/10/31 18:47:31;;;;;;;35.65;18.58;;;;;;;;;;5157825;27;20043;-69
2022/10/31 18:49:58;;;;;;;32.25;17.77;;;;;;;;;;5161591;27;20043;-68
2022/10/31 18:52:24;;;;;;;31.63;18.63;;;;;;;;;;5156112;27;20753;-69
2022/10/31 18:54:50;;;;;;;31.30;17.25;;;;;;;;;;5159308;27;20057;-70
2022/10/31 18:57:17;;;;;;;32.30;18.90;;;;;;;;;;5145748;27;20051;-69
2022/10/31 18:59:43;;;;;;;32.92;18.05;;;;;;;;;;5152305;27;20051;-69
2022/10/31 19:02:13;;;;;;;32.33;18.35;;;;;;;;;;5152687;27;20056;-70
2022/10/31 19:04:40;;;;;;;33.15;18.35;;;;;;;;;;5154250;27;20042;-70
2022/10/31 19:07:06;;;;;;;34.17;19.63;;;;;;;;;;5148412;27;20501;-69
2022/10/31 19:09:33;;;;;;;34.28;17.33;;;;;;;;;;5162392;27;20462;-68
2022/10/31 19:11:59;;;;;;;35.05;17.33;;;;;;;;;;5169602;27;20050;-68
2022/10/31 19:14:26;;;;;;;30.00;18.38;;;;;;;;;;5151776;27;20521;-68
2022/10/31 19:16:52;;;;;;;35.63;17.73;;;;;;;;;;5150898;27;20047;-69
2022/10/31 19:19:20;;;;;;;31.80;17.27;;;;;;;;;;5153371;27;20090;-69
2022/10/31 19:21:47;;;;;;;40.03;17.02;;;;;;;;;;5151186;27;20055;-69
2022/10/31 19:24:13;;;;;;;32.22;16.45;;;;;;;;;;5151890;27;20054;-69
2022/10/31 19:26:39;;;;;;;28.70;15.93;;;;;;;;;;5160570;27;20054;-69
2022/10/31 19:29:05;;;;;;;33.72;16.05;;;;;;;;;;5162080;27;20058;-69
2022/10/31 19:31:33;;;;;;;34.40;15.13;;;;;;;;;;5162837;27;20055;-68
2022/10/31 19:33:59;;;;;;;31.17;16.92;;;;;;;;;;5150028;27;20531;-69
2022/10/31 19:36:26;;;;;;;29.65;15.20;;;;;;;;;;5150668;27;20073;-69
2022/10/31 19:38:53;;;;;;;29.17;15.13;;;;;;;;;;5146127;27;20084;-70
2022/10/31 19:41:20;;;;;;;35.28;15.20;;;;;;;;;;5150352;27;20055;-69
2022/10/31 19:43:47;;;;;;;28.77;14.07;;;;;;;;;;5153340;27;20062;-69
2022/10/31 19:46:14;;;;;;;25.15;13.35;;;;;;;;;;5153760;27;20076;-71
2022/10/31 19:48:59;;;;;;;25.98;13.20;;;;;;;;;;5148203;27;20049;-70
2022/10/31 19:51:27;;;;;;;26.05;13.25;;;;;;;;;;5148398;27;20055;-70
2022/10/31 19:53:53;;;;;;;23.85;13.60;;;;;;;;;;5149223;27;20772;-71
2022/10/31 19:56:22;;;;;;;31.15;13.68;;;;;;;;;;5145487;27;20053;-69
2022/10/31 19:58:49;;;;;;;28.25;14.27;;;;;;;;;;5147236;27;20055;-69
2022/10/31 20:01:17;;;;;;;22.30;13.38;;;;;;;;;;5150995;27;20046;-69
2022/10/31 20:03:43;;;;;;;24.27;12.07;;;;;;;;;;5151657;27;20082;-69